Weather reports worldwide

Advertisment
Fyvie castle, United Kingdom (99010): temperature & dewpoint: 06.11.2019 15:00:00 - 12.11.2019 15:00:00 (GMT)Fyvie castle, United Kingdom (99010): precipitation: 06.11.2019 15:00:00 - 12.11.2019 15:00:00 (GMT)
Date & Time tt [°C] td [°C] rr [mm]
12.11.2019 15:00:00 6,3 4,9 1,6
12.11.2019 14:00:00 6,9 5,1 0,2
12.11.2019 13:00:00 7,4 5,7 0,2
12.11.2019 12:00:00 6,8 5,2 0,6
12.11.2019 11:00:00 7,6 6,1 0,6
12.11.2019 10:00:00 7,1 6,3 1,2
12.11.2019 09:00:00 6,8 5,9 2,0
12.11.2019 08:00:00 7,2 6,3 1,4
12.11.2019 07:00:00 7,0 5,9 1,4
12.11.2019 06:00:00 7,3 6,3 0,2
12.11.2019 05:00:00 6,7 6,0 1,2
12.11.2019 04:00:00 6,8 6,4 1,6
12.11.2019 03:00:00 6,2 5,7 0,4
12.11.2019 02:00:00 4,8 4,5 1,8
12.11.2019 01:00:00 4,1 3,8 1,2
12.11.2019 00:00:00 3,6 3,4 0,4
11.11.2019 23:00:00 3,3 2,9 1,4
11.11.2019 22:00:00 3,3 2,6 0,2
11.11.2019 21:00:00 3,0 2,6 0,0
11.11.2019 20:00:00 3,0 2,5 0,0
11.11.2019 19:00:00 3,6 2,9 0,2
11.11.2019 18:00:00 3,9 3,0 0,0
11.11.2019 17:00:00 4,6 3,2 0,0
11.11.2019 16:00:00 5,3 4,5 0,0
11.11.2019 15:00:00 6,0 4,7 0,0
11.11.2019 14:00:00 6,0 4,6 0,0
11.11.2019 13:00:00 5,6 5,0 0,0
11.11.2019 12:00:00 5,3 5,2 0,0
11.11.2019 11:00:00 4,9 4,7 0,0
11.11.2019 10:00:00 5,0 4,8 0,0
11.11.2019 09:00:00 4,7 4,5 0,0
11.11.2019 08:00:00 4,3 3,9 0,4
11.11.2019 07:00:00 4,6 4,2 0,0
11.11.2019 06:00:00 4,8 4,0 0,4
11.11.2019 05:00:00 4,6 4,1 0,2
11.11.2019 04:00:00 4,1 3,7 0,2
11.11.2019 03:00:00 3,8 3,4 0,2
11.11.2019 02:00:00 3,4 2,8 0,6
11.11.2019 01:00:00 3,3 2,2 0,6
11.11.2019 00:00:00 3,3 2,1 0,2
10.11.2019 23:00:00 3,1 1,3 0,0
10.11.2019 22:00:00 2,3 1,0 0,0
10.11.2019 21:00:00 0,8 0,5 0,0
10.11.2019 20:00:00 1,0 0,7 0,0
10.11.2019 19:00:00 1,2 0,8 0,0
10.11.2019 18:00:00 1,2 0,7 0,0
10.11.2019 17:00:00 1,6 0,7 0,0
10.11.2019 16:00:00 2,4 0,7 0,0
10.11.2019 15:00:00 4,0 1,3 0,0
10.11.2019 14:00:00 4,9 2,0 0,0
10.11.2019 13:00:00 4,7 3,0 0,0
10.11.2019 12:00:00 2,8 2,4 0,0
10.11.2019 11:00:00 -1,5 -1,6 0,0
10.11.2019 10:00:00 -1,3 -1,3 0,0
10.11.2019 09:00:00 -2,9 -3,2 0,0
10.11.2019 08:00:00 -2,5 -2,6 0,0
10.11.2019 07:00:00 -3,2 -3,3 0,0
10.11.2019 06:00:00 -3,5 -3,9 0,0
10.11.2019 05:00:00 -2,9 -3,0 0,0
10.11.2019 04:00:00 -3,5 -3,9 0,0
10.11.2019 03:00:00 -3,2 -3,6 0,0
10.11.2019 02:00:00 -2,5 -2,8 0,0
10.11.2019 01:00:00 -2,2 -2,4 0,0
10.11.2019 00:00:00 -2,1 -2,2 0,0
09.11.2019 23:00:00 -2,7 -3,0 0,0
09.11.2019 22:00:00 -1,7 -1,8 0,0
09.11.2019 21:00:00 -1,5 -1,5 0,0
09.11.2019 20:00:00 -2,0 -2,2 0,0
09.11.2019 19:00:00 -0,6 -0,6 0,0
09.11.2019 18:00:00 -1,3 -1,4 0,0
09.11.2019 17:00:00 -0,9 -1,3 0,0
09.11.2019 16:00:00 0,5 0,2 0,0
09.11.2019 15:00:00 1,8 1,7 0,0
09.11.2019 14:00:00 2,0 2,0 0,0
09.11.2019 13:00:00 2,0 2,0 0,0
09.11.2019 12:00:00 0,4 0,4 0,2
09.11.2019 11:00:00 -0,3 -0,3 0,0
09.11.2019 10:00:00 -1,4 -1,4 0,0
09.11.2019 09:00:00 -3,3 -3,4 0,0
09.11.2019 08:00:00 -4,0 -4,4 0,0
09.11.2019 07:00:00 -3,8 -4,1 0,0
09.11.2019 06:00:00 -3,6 -4,0 0,0
09.11.2019 05:00:00 -3,5 -3,9 0,0
09.11.2019 04:00:00 -3,1 -3,5 0,0
09.11.2019 03:00:00 -3,4 -3,6 0,0
09.11.2019 02:00:00 -3,5 -3,9 0,0
09.11.2019 01:00:00 -2,7 -3,0 0,0
09.11.2019 00:00:00 -2,8 -3,0 0,0
08.11.2019 23:00:00 -2,5 -2,7 0,0
08.11.2019 22:00:00 -2,2 -2,5 0,0
08.11.2019 21:00:00 -1,4 -1,7 0,0
08.11.2019 20:00:00 -1,0 -1,2 0,0
08.11.2019 19:00:00 -1,1 -1,6 0,0
08.11.2019 18:00:00 -0,1 -0,9 0,0
08.11.2019 17:00:00 2,0 0,8 0,0
08.11.2019 16:00:00 3,6 1,6 0,0
08.11.2019 15:00:00 4,5 2,0 0,0
08.11.2019 14:00:00 6,0 2,3 0,0
08.11.2019 13:00:00 6,1 2,6 0,0
08.11.2019 12:00:00 4,8 2,7 0,0
08.11.2019 11:00:00 3,5 2,9 1,0
08.11.2019 10:00:00 2,1 1,8 0,2
08.11.2019 09:00:00 1,0 0,8 0,0
08.11.2019 08:00:00 1,2 0,5 0,0
08.11.2019 07:00:00 -0,8 -1,0 0,0
08.11.2019 06:00:00 -1,0 -1,7 0,0
08.11.2019 05:00:00 1,0 0,1 0,0
08.11.2019 04:00:00 1,0 0,3 0,0
08.11.2019 03:00:00 0,8 -0,9 0,0
08.11.2019 02:00:00 0,2 -0,9 0,0
08.11.2019 01:00:00 -0,1 -0,8 0,0
08.11.2019 00:00:00 1,3 0,5 0,0
07.11.2019 23:00:00 1,5 1,5 0,0
07.11.2019 22:00:00 -0,3 -0,5 0,0
07.11.2019 21:00:00 -0,1 -0,6 0,0
07.11.2019 20:00:00 0,6 0,0 0,0
07.11.2019 19:00:00 0,9 0,0 0,0
07.11.2019 18:00:00 3,3 1,8 0,2
07.11.2019 17:00:00 3,2 1,1 0,0
07.11.2019 16:00:00 4,6 1,0 0,0
07.11.2019 15:00:00 6,1 0,9 0,0
07.11.2019 14:00:00 7,0 0,8 0,0
07.11.2019 13:00:00 7,9 3,0 0,0
07.11.2019 12:00:00 6,7 2,7 0,0
07.11.2019 11:00:00 6,1 2,7 0,0
07.11.2019 10:00:00 5,9 3,7 0,2
07.11.2019 09:00:00 4,7 3,7 0,0
07.11.2019 08:00:00 3,6 3,0 0,4
07.11.2019 07:00:00 4,2 3,3 0,2
07.11.2019 06:00:00 4,1 3,2 0,4
07.11.2019 05:00:00 3,5 2,8 0,2
07.11.2019 04:00:00 3,8 3,0 0,2
07.11.2019 03:00:00 3,5 3,3 0,2
07.11.2019 02:00:00 3,5 3,5 1,0
07.11.2019 01:00:00 1,4 1,0 0,0
07.11.2019 00:00:00 2,5 2,0 0,0
06.11.2019 23:00:00 3,4 3,0 0,8
06.11.2019 22:00:00 3,3 3,0 0,8
06.11.2019 21:00:00 3,3 2,9 0,8
06.11.2019 20:00:00 3,4 3,0 0,4
06.11.2019 19:00:00 2,9 2,7 0,0
06.11.2019 18:00:00 3,0 2,6 0,0
06.11.2019 17:00:00 3,8 3,1 0,0
06.11.2019 16:00:00 4,4 3,2 0,4
06.11.2019 15:00:00 6,0 4,5 0,0

tt = temperature
td = dewpoint
rr = precipitation

Next stations